Portada
METAR-TAF:

METAR-TAF

Aeroports :

Udon Thani, Tailàndia

latitud: 17-23N, longitud: 102-48E, altitud: 177 m

Observació

L'informe es va fer fa 1 hora i 9 minuts, a les 02:00 UTC
Vent 4 kt amb direcció variable
Temperatura 25°C
Humitat 65%
Pressió 1017 hPa
Visibilitat 10 km o més
sense núvols per sota de 1500 mi sense presència de cumulonimbus.

METAR: VTUD 150200Z VRB04KT CAVOK 25/18 Q1017 NOSIG

Hora: 10:09 (03:09 UTC)

Pronòstic

L'informe es va fer fa 4 hores i 9 minuts, a les 23:00 UTC
Pronòstic vàlid del 15 a les 00 UTC al 15 a les 24 UTC
Vent 7 kt del Est
Visibilitat: 8000 m
Núvols disperses a una alçada de 2500 ft

TAF: VTUD 142300Z 1500/1524 08007KT 8000 SCT025

Observacions i pronòstics meteorològics de més de 4000 aeroports (METAR i TAF).

Les estacions disponibles són els punts grocs i vermells al mapa.

Posi el ratolí al punt desitjat per veure el nom de l'estació.

Feu clic per veure les observacions i els pronòstics meteorològics.

Per canviar el mapa: feu clic els botons verds amb una creu de color negre per apropar; al botó verd amb un guió per allunyar la imatge; o en les fletxes verdes per a mapes adjacents.


METAR-TAF: